sensor_id;sensor_type;location;lat;lon;timestamp;P1;durP1;ratioP1;P2;durP2;ratioP2
33902;SDS011;20194;50.950;5.346;2023-04-06T00:01:38;32.35;;;17.45;;
33902;SDS011;20194;50.950;5.346;2023-04-06T00:04:04;34.20;;;16.85;;
33902;SDS011;20194;50.950;5.346;2023-04-06T00:06:31;34.85;;;17.77;;
33902;SDS011;20194;50.950;5.346;2023-04-06T00:08:57;37.53;;;18.58;;
33902;SDS011;20194;50.950;5.346;2023-04-06T00:11:24;37.80;;;17.90;;
33902;SDS011;20194;50.950;5.346;2023-04-06T00:13:50;37.05;;;18.17;;
33902;SDS011;20194;50.950;5.346;2023-04-06T00:16:15;36.38;;;18.77;;
33902;SDS011;20194;50.950;5.346;2023-04-06T00:18:41;30.45;;;16.65;;
33902;SDS011;20194;50.950;5.346;2023-04-06T00:21:07;41.67;;;17.98;;
33902;SDS011;20194;50.950;5.346;2023-04-06T00:23:33;32.47;;;17.90;;
33902;SDS011;20194;50.950;5.346;2023-04-06T00:25:58;31.35;;;17.63;;
33902;SDS011;20194;50.950;5.346;2023-04-06T00:28:24;34.08;;;18.55;;
33902;SDS011;20194;50.950;5.346;2023-04-06T00:30:51;45.85;;;18.63;;
33902;SDS011;20194;50.950;5.346;2023-04-06T00:33:19;35.40;;;17.88;;
33902;SDS011;20194;50.950;5.346;2023-04-06T00:35:45;34.97;;;18.52;;
33902;SDS011;20194;50.950;5.346;2023-04-06T00:38:11;33.03;;;17.35;;
33902;SDS011;20194;50.950;5.346;2023-04-06T00:40:37;43.97;;;18.90;;
33902;SDS011;20194;50.950;5.346;2023-04-06T00:43:05;43.10;;;16.70;;
33902;SDS011;20194;50.950;5.346;2023-04-06T00:45:31;40.75;;;17.95;;
33902;SDS011;20194;50.950;5.346;2023-04-06T00:47:57;36.80;;;18.17;;
33902;SDS011;20194;50.950;5.346;2023-04-06T00:50:23;33.55;;;18.27;;
33902;SDS011;20194;50.950;5.346;2023-04-06T00:52:49;29.63;;;16.08;;
33902;SDS011;20194;50.950;5.346;2023-04-06T00:55:16;39.15;;;18.52;;
33902;SDS011;20194;50.950;5.346;2023-04-06T00:57:43;30.98;;;17.23;;
33902;SDS011;20194;50.950;5.346;2023-04-06T01:00:09;32.17;;;17.63;;
33902;SDS011;20194;50.950;5.346;2023-04-06T01:02:37;35.65;;;17.42;;
33902;SDS011;20194;50.950;5.346;2023-04-06T01:05:02;33.40;;;17.35;;
33902;SDS011;20194;50.950;5.346;2023-04-06T01:07:28;40.42;;;19.23;;
33902;SDS011;20194;50.950;5.346;2023-04-06T01:09:54;32.55;;;18.17;;
33902;SDS011;20194;50.950;5.346;2023-04-06T01:12:20;37.25;;;18.02;;
33902;SDS011;20194;50.950;5.346;2023-04-06T01:14:46;39.70;;;18.08;;
33902;SDS011;20194;50.950;5.346;2023-04-06T01:17:11;36.75;;;18.10;;
33902;SDS011;20194;50.950;5.346;2023-04-06T01:19:37;34.90;;;19.08;;
33902;SDS011;20194;50.950;5.346;2023-04-06T01:22:05;36.22;;;17.30;;
33902;SDS011;20194;50.950;5.346;2023-04-06T01:24:31;34.60;;;18.48;;
33902;SDS011;20194;50.950;5.346;2023-04-06T01:26:58;38.42;;;18.85;;
33902;SDS011;20194;50.950;5.346;2023-04-06T01:29:23;37.95;;;17.73;;
33902;SDS011;20194;50.950;5.346;2023-04-06T01:31:49;31.98;;;17.63;;
33902;SDS011;20194;50.950;5.346;2023-04-06T01:34:15;33.83;;;18.85;;
33902;SDS011;20194;50.950;5.346;2023-04-06T01:36:42;33.92;;;18.55;;
33902;SDS011;20194;50.950;5.346;2023-04-06T01:39:07;39.45;;;17.10;;
33902;SDS011;20194;50.950;5.346;2023-04-06T01:41:33;38.95;;;18.38;;
33902;SDS011;20194;50.950;5.346;2023-04-06T01:43:59;35.10;;;16.42;;
33902;SDS011;20194;50.950;5.346;2023-04-06T01:46:25;37.13;;;17.83;;
33902;SDS011;20194;50.950;5.346;2023-04-06T01:48:51;32.30;;;17.25;;
33902;SDS011;20194;50.950;5.346;2023-04-06T01:51:17;37.85;;;18.90;;
33902;SDS011;20194;50.950;5.346;2023-04-06T01:53:43;35.70;;;17.75;;
33902;SDS011;20194;50.950;5.346;2023-04-06T01:56:08;38.15;;;18.73;;
33902;SDS011;20194;50.950;5.346;2023-04-06T01:58:34;37.00;;;18.48;;
33902;SDS011;20194;50.950;5.346;2023-04-06T02:01:00;41.05;;;19.25;;
33902;SDS011;20194;50.950;5.346;2023-04-06T02:03:26;35.90;;;17.60;;
33902;SDS011;20194;50.950;5.346;2023-04-06T02:05:52;35.42;;;17.40;;
33902;SDS011;20194;50.950;5.346;2023-04-06T02:08:18;39.60;;;20.50;;
33902;SDS011;20194;50.950;5.346;2023-04-06T02:10:44;34.80;;;17.55;;
33902;SDS011;20194;50.950;5.346;2023-04-06T02:13:10;33.78;;;17.75;;
33902;SDS011;20194;50.950;5.346;2023-04-06T02:15:35;33.88;;;17.77;;
33902;SDS011;20194;50.950;5.346;2023-04-06T02:18:01;33.63;;;17.95;;
33902;SDS011;20194;50.950;5.346;2023-04-06T02:20:27;44.20;;;19.13;;
33902;SDS011;20194;50.950;5.346;2023-04-06T02:22:53;40.30;;;18.42;;
33902;SDS011;20194;50.950;5.346;2023-04-06T02:25:19;40.00;;;19.17;;
33902;SDS011;20194;50.950;5.346;2023-04-06T02:27:45;37.72;;;18.73;;
33902;SDS011;20194;50.950;5.346;2023-04-06T02:30:10;37.15;;;19.00;;
33902;SDS011;20194;50.950;5.346;2023-04-06T02:32:36;36.50;;;17.95;;
33902;SDS011;20194;50.950;5.346;2023-04-06T02:35:02;40.33;;;19.00;;
33902;SDS011;20194;50.950;5.346;2023-04-06T02:37:28;34.83;;;18.40;;
33902;SDS011;20194;50.950;5.346;2023-04-06T02:39:53;35.80;;;18.08;;
33902;SDS011;20194;50.950;5.346;2023-04-06T02:42:19;45.70;;;18.83;;
33902;SDS011;20194;50.950;5.346;2023-04-06T02:44:46;42.00;;;19.02;;
33902;SDS011;20194;50.950;5.346;2023-04-06T02:47:11;34.60;;;16.98;;
33902;SDS011;20194;50.950;5.346;2023-04-06T02:49:37;35.13;;;18.13;;
33902;SDS011;20194;50.950;5.346;2023-04-06T02:52:03;38.45;;;17.73;;
33902;SDS011;20194;50.950;5.346;2023-04-06T02:54:29;34.35;;;17.60;;
33902;SDS011;20194;50.950;5.346;2023-04-06T02:56:55;38.30;;;17.30;;
33902;SDS011;20194;50.950;5.346;2023-04-06T02:59:20;36.95;;;18.55;;
33902;SDS011;20194;50.950;5.346;2023-04-06T03:01:46;40.47;;;17.92;;
33902;SDS011;20194;50.950;5.346;2023-04-06T03:04:12;36.33;;;17.52;;
33902;SDS011;20194;50.950;5.346;2023-04-06T03:06:37;36.85;;;18.52;;
33902;SDS011;20194;50.950;5.346;2023-04-06T03:09:03;37.08;;;16.80;;
33902;SDS011;20194;50.950;5.346;2023-04-06T03:11:29;35.53;;;17.85;;
33902;SDS011;20194;50.950;5.346;2023-04-06T03:13:55;37.13;;;16.38;;
33902;SDS011;20194;50.950;5.346;2023-04-06T03:16:20;33.00;;;17.23;;
33902;SDS011;20194;50.950;5.346;2023-04-06T03:18:46;33.03;;;16.73;;
33902;SDS011;20194;50.950;5.346;2023-04-06T03:21:12;41.72;;;17.65;;
33902;SDS011;20194;50.950;5.346;2023-04-06T03:23:40;33.60;;;17.20;;
33902;SDS011;20194;50.950;5.346;2023-04-06T03:26:06;32.85;;;17.63;;
33902;SDS011;20194;50.950;5.346;2023-04-06T03:28:32;36.10;;;15.93;;
33902;SDS011;20194;50.950;5.346;2023-04-06T03:30:58;28.35;;;16.50;;
33902;SDS011;20194;50.950;5.346;2023-04-06T03:33:24;30.58;;;15.88;;
33902;SDS011;20194;50.950;5.346;2023-04-06T03:35:52;32.53;;;16.50;;
33902;SDS011;20194;50.950;5.346;2023-04-06T03:38:20;30.23;;;15.82;;
33902;SDS011;20194;50.950;5.346;2023-04-06T03:40:46;30.20;;;16.95;;
33902;SDS011;20194;50.950;5.346;2023-04-06T03:43:11;32.05;;;16.83;;
33902;SDS011;20194;50.950;5.346;2023-04-06T03:45:37;31.23;;;16.10;;
33902;SDS011;20194;50.950;5.346;2023-04-06T03:48:03;38.47;;;17.25;;
33902;SDS011;20194;50.950;5.346;2023-04-06T03:50:29;30.80;;;14.90;;
33902;SDS011;20194;50.950;5.346;2023-04-06T03:52:55;31.17;;;15.60;;
33902;SDS011;20194;50.950;5.346;2023-04-06T03:55:21;30.70;;;15.45;;
33902;SDS011;20194;50.950;5.346;2023-04-06T03:57:47;29.85;;;15.55;;
33902;SDS011;20194;50.950;5.346;2023-04-06T04:00:12;30.40;;;15.52;;
33902;SDS011;20194;50.950;5.346;2023-04-06T04:02:38;29.88;;;14.98;;
33902;SDS011;20194;50.950;5.346;2023-04-06T04:05:05;30.50;;;15.88;;
33902;SDS011;20194;50.950;5.346;2023-04-06T04:07:31;36.03;;;16.40;;
33902;SDS011;20194;50.950;5.346;2023-04-06T04:09:57;33.47;;;16.33;;
33902;SDS011;20194;50.950;5.346;2023-04-06T04:12:22;31.25;;;15.57;;
33902;SDS011;20194;50.950;5.346;2023-04-06T04:14:48;30.25;;;15.32;;
33902;SDS011;20194;50.950;5.346;2023-04-06T04:17:14;30.17;;;16.33;;
33902;SDS011;20194;50.950;5.346;2023-04-06T04:19:40;31.95;;;15.05;;
33902;SDS011;20194;50.950;5.346;2023-04-06T04:22:06;36.65;;;15.45;;
33902;SDS011;20194;50.950;5.346;2023-04-06T04:24:31;31.83;;;16.23;;
33902;SDS011;20194;50.950;5.346;2023-04-06T04:26:57;38.42;;;16.02;;
33902;SDS011;20194;50.950;5.346;2023-04-06T04:29:23;37.88;;;15.68;;
33902;SDS011;20194;50.950;5.346;2023-04-06T04:31:49;33.03;;;15.35;;
33902;SDS011;20194;50.950;5.346;2023-04-06T04:34:16;34.15;;;15.18;;
33902;SDS011;20194;50.950;5.346;2023-04-06T04:36:41;33.90;;;17.27;;
33902;SDS011;20194;50.950;5.346;2023-04-06T04:39:07;35.83;;;16.08;;
33902;SDS011;20194;50.950;5.346;2023-04-06T04:41:33;30.05;;;15.48;;
33902;SDS011;20194;50.950;5.346;2023-04-06T04:43:59;31.88;;;14.95;;
33902;SDS011;20194;50.950;5.346;2023-04-06T04:46:26;29.33;;;15.38;;
33902;SDS011;20194;50.950;5.346;2023-04-06T04:48:51;33.88;;;15.68;;
33902;SDS011;20194;50.950;5.346;2023-04-06T04:51:17;32.03;;;15.68;;
33902;SDS011;20194;50.950;5.346;2023-04-06T04:53:44;28.90;;;15.07;;
33902;SDS011;20194;50.950;5.346;2023-04-06T04:56:10;32.80;;;15.35;;
33902;SDS011;20194;50.950;5.346;2023-04-06T04:58:37;33.35;;;15.85;;
33902;SDS011;20194;50.950;5.346;2023-04-06T05:01:02;34.58;;;15.60;;
33902;SDS011;20194;50.950;5.346;2023-04-06T05:03:28;29.67;;;15.88;;
33902;SDS011;20194;50.950;5.346;2023-04-06T05:05:54;31.30;;;14.60;;
33902;SDS011;20194;50.950;5.346;2023-04-06T05:08:20;28.10;;;14.80;;
33902;SDS011;20194;50.950;5.346;2023-04-06T05:10:45;30.33;;;14.80;;
33902;SDS011;20194;50.950;5.346;2023-04-06T05:13:13;31.52;;;15.27;;
33902;SDS011;20194;50.950;5.346;2023-04-06T05:15:39;36.17;;;15.70;;
33902;SDS011;20194;50.950;5.346;2023-04-06T05:18:05;30.83;;;14.65;;
33902;SDS011;20194;50.950;5.346;2023-04-06T05:20:31;27.80;;;13.55;;
33902;SDS011;20194;50.950;5.346;2023-04-06T05:22:57;28.92;;;14.32;;
33902;SDS011;20194;50.950;5.346;2023-04-06T05:25:23;28.92;;;14.68;;
33902;SDS011;20194;50.950;5.346;2023-04-06T05:27:50;28.83;;;14.68;;
33902;SDS011;20194;50.950;5.346;2023-04-06T05:30:16;27.75;;;15.05;;
33902;SDS011;20194;50.950;5.346;2023-04-06T05:32:41;30.98;;;14.18;;
33902;SDS011;20194;50.950;5.346;2023-04-06T05:35:09;30.88;;;14.50;;
33902;SDS011;20194;50.950;5.346;2023-04-06T05:37:36;25.58;;;14.15;;
33902;SDS011;20194;50.950;5.346;2023-04-06T05:40:02;31.83;;;15.43;;
33902;SDS011;20194;50.950;5.346;2023-04-06T05:42:35;24.48;;;13.63;;
33902;SDS011;20194;50.950;5.346;2023-04-06T05:45:05;31.85;;;14.35;;
33902;SDS011;20194;50.950;5.346;2023-04-06T05:47:31;31.95;;;14.75;;
33902;SDS011;20194;50.950;5.346;2023-04-06T05:49:57;26.23;;;13.05;;
33902;SDS011;20194;50.950;5.346;2023-04-06T05:52:23;29.45;;;14.77;;
33902;SDS011;20194;50.950;5.346;2023-04-06T05:54:48;25.75;;;14.95;;
33902;SDS011;20194;50.950;5.346;2023-04-06T05:57:15;34.47;;;14.30;;
33902;SDS011;20194;50.950;5.346;2023-04-06T05:59:41;31.60;;;14.20;;
33902;SDS011;20194;50.950;5.346;2023-04-06T06:02:07;26.60;;;13.88;;
33902;SDS011;20194;50.950;5.346;2023-04-06T06:04:33;26.05;;;13.05;;
33902;SDS011;20194;50.950;5.346;2023-04-06T06:06:59;26.73;;;13.63;;
33902;SDS011;20194;50.950;5.346;2023-04-06T06:09:25;27.65;;;13.77;;
33902;SDS011;20194;50.950;5.346;2023-04-06T06:11:51;27.17;;;12.82;;
33902;SDS011;20194;50.950;5.346;2023-04-06T06:14:17;29.13;;;13.35;;
33902;SDS011;20194;50.950;5.346;2023-04-06T06:16:43;30.48;;;14.02;;
33902;SDS011;20194;50.950;5.346;2023-04-06T06:19:09;25.30;;;12.98;;
33902;SDS011;20194;50.950;5.346;2023-04-06T06:21:35;23.90;;;12.02;;
33902;SDS011;20194;50.950;5.346;2023-04-06T06:24:01;25.15;;;13.68;;
33902;SDS011;20194;50.950;5.346;2023-04-06T06:26:27;29.65;;;14.50;;
33902;SDS011;20194;50.950;5.346;2023-04-06T06:28:52;26.10;;;12.25;;
33902;SDS011;20194;50.950;5.346;2023-04-06T06:31:18;24.10;;;13.48;;
33902;SDS011;20194;50.950;5.346;2023-04-06T06:33:47;25.48;;;13.20;;
33902;SDS011;20194;50.950;5.346;2023-04-06T06:36:16;28.92;;;14.88;;
33902;SDS011;20194;50.950;5.346;2023-04-06T06:38:42;27.30;;;12.20;;
33902;SDS011;20194;50.950;5.346;2023-04-06T06:41:08;27.77;;;13.90;;
33902;SDS011;20194;50.950;5.346;2023-04-06T06:43:34;26.05;;;12.15;;
33902;SDS011;20194;50.950;5.346;2023-04-06T06:46:00;26.45;;;13.20;;
33902;SDS011;20194;50.950;5.346;2023-04-06T06:48:26;29.30;;;13.93;;
33902;SDS011;20194;50.950;5.346;2023-04-06T06:50:52;28.23;;;13.35;;
33902;SDS011;20194;50.950;5.346;2023-04-06T06:53:18;33.45;;;14.05;;
33902;SDS011;20194;50.950;5.346;2023-04-06T06:55:44;31.75;;;14.00;;
33902;SDS011;20194;50.950;5.346;2023-04-06T06:58:11;27.58;;;13.50;;
33902;SDS011;20194;50.950;5.346;2023-04-06T07:00:36;29.38;;;13.48;;
33902;SDS011;20194;50.950;5.346;2023-04-06T07:03:02;30.65;;;14.07;;
33902;SDS011;20194;50.950;5.346;2023-04-06T07:05:28;26.70;;;13.80;;
33902;SDS011;20194;50.950;5.346;2023-04-06T07:07:54;27.10;;;13.73;;
33902;SDS011;20194;50.950;5.346;2023-04-06T07:10:21;26.17;;;12.07;;
33902;SDS011;20194;50.950;5.346;2023-04-06T07:12:46;27.75;;;14.52;;
33902;SDS011;20194;50.950;5.346;2023-04-06T07:15:13;28.73;;;12.82;;
33902;SDS011;20194;50.950;5.346;2023-04-06T07:17:38;30.25;;;13.73;;
33902;SDS011;20194;50.950;5.346;2023-04-06T07:20:06;29.23;;;14.15;;
33902;SDS011;20194;50.950;5.346;2023-04-06T07:22:32;31.45;;;14.55;;
33902;SDS011;20194;50.950;5.346;2023-04-06T07:24:58;28.67;;;13.32;;
33902;SDS011;20194;50.950;5.346;2023-04-06T07:27:24;29.98;;;13.60;;
33902;SDS011;20194;50.950;5.346;2023-04-06T07:29:50;30.80;;;14.95;;
33902;SDS011;20194;50.950;5.346;2023-04-06T07:32:15;37.22;;;15.65;;
33902;SDS011;20194;50.950;5.346;2023-04-06T07:34:41;33.67;;;16.00;;
33902;SDS011;20194;50.950;5.346;2023-04-06T07:37:07;33.72;;;13.75;;
33902;SDS011;20194;50.950;5.346;2023-04-06T07:39:33;35.08;;;14.50;;
33902;SDS011;20194;50.950;5.346;2023-04-06T07:41:59;31.98;;;15.20;;
33902;SDS011;20194;50.950;5.346;2023-04-06T07:44:25;32.75;;;13.88;;
33902;SDS011;20194;50.950;5.346;2023-04-06T07:46:51;34.58;;;13.48;;
33902;SDS011;20194;50.950;5.346;2023-04-06T07:49:16;27.17;;;12.35;;
33902;SDS011;20194;50.950;5.346;2023-04-06T07:51:42;32.13;;;12.40;;
33902;SDS011;20194;50.950;5.346;2023-04-06T07:54:08;30.17;;;12.30;;
33902;SDS011;20194;50.950;5.346;2023-04-06T07:56:34;31.38;;;11.40;;
33902;SDS011;20194;50.950;5.346;2023-04-06T07:58:59;22.52;;;11.00;;
33902;SDS011;20194;50.950;5.346;2023-04-06T08:01:26;25.10;;;12.20;;
33902;SDS011;20194;50.950;5.346;2023-04-06T08:03:53;27.20;;;11.85;;
33902;SDS011;20194;50.950;5.346;2023-04-06T08:06:21;25.75;;;11.48;;
33902;SDS011;20194;50.950;5.346;2023-04-06T08:08:46;28.48;;;11.50;;
33902;SDS011;20194;50.950;5.346;2023-04-06T08:11:12;30.13;;;11.52;;
33902;SDS011;20194;50.950;5.346;2023-04-06T08:13:38;29.63;;;11.82;;
33902;SDS011;20194;50.950;5.346;2023-04-06T08:16:04;21.30;;;10.70;;
33902;SDS011;20194;50.950;5.346;2023-04-06T08:18:30;40.45;;;12.38;;
33902;SDS011;20194;50.950;5.346;2023-04-06T08:20:55;23.95;;;11.32;;
33902;SDS011;20194;50.950;5.346;2023-04-06T08:23:22;28.25;;;12.35;;
33902;SDS011;20194;50.950;5.346;2023-04-06T08:25:47;28.33;;;13.50;;
33902;SDS011;20194;50.950;5.346;2023-04-06T08:28:13;30.30;;;12.60;;
33902;SDS011;20194;50.950;5.346;2023-04-06T08:30:40;27.98;;;12.77;;
33902;SDS011;20194;50.950;5.346;2023-04-06T08:33:06;30.45;;;11.57;;
33902;SDS011;20194;50.950;5.346;2023-04-06T08:35:31;34.65;;;12.57;;
33902;SDS011;20194;50.950;5.346;2023-04-06T08:37:57;26.40;;;11.00;;
33902;SDS011;20194;50.950;5.346;2023-04-06T08:40:23;32.70;;;12.15;;
33902;SDS011;20194;50.950;5.346;2023-04-06T08:42:58;28.75;;;11.95;;
33902;SDS011;20194;50.950;5.346;2023-04-06T08:45:27;27.00;;;11.60;;
33902;SDS011;20194;50.950;5.346;2023-04-06T08:47:53;25.52;;;11.35;;
33902;SDS011;20194;50.950;5.346;2023-04-06T08:50:22;21.77;;;10.65;;
33902;SDS011;20194;50.950;5.346;2023-04-06T08:52:49;26.20;;;12.75;;
33902;SDS011;20194;50.950;5.346;2023-04-06T08:55:15;25.63;;;11.93;;
33902;SDS011;20194;50.950;5.346;2023-04-06T08:57:41;31.17;;;11.65;;
33902;SDS011;20194;50.950;5.346;2023-04-06T09:00:09;27.73;;;11.65;;
33902;SDS011;20194;50.950;5.346;2023-04-06T09:02:39;22.95;;;11.02;;
33902;SDS011;20194;50.950;5.346;2023-04-06T09:05:07;27.10;;;11.27;;
33902;SDS011;20194;50.950;5.346;2023-04-06T09:07:35;25.85;;;11.00;;
33902;SDS011;20194;50.950;5.346;2023-04-06T09:10:01;26.20;;;11.13;;
33902;SDS011;20194;50.950;5.346;2023-04-06T09:12:29;20.60;;;9.68;;
33902;SDS011;20194;50.950;5.346;2023-04-06T09:14:56;27.60;;;9.75;;
33902;SDS011;20194;50.950;5.346;2023-04-06T09:17:25;20.38;;;9.65;;
33902;SDS011;20194;50.950;5.346;2023-04-06T09:19:57;20.42;;;9.32;;
33902;SDS011;20194;50.950;5.346;2023-04-06T09:22:24;26.73;;;9.05;;
33902;SDS011;20194;50.950;5.346;2023-04-06T09:24:53;22.67;;;8.98;;
33902;SDS011;20194;50.950;5.346;2023-04-06T09:27:35;18.52;;;9.43;;
33902;SDS011;20194;50.950;5.346;2023-04-06T09:30:06;21.75;;;8.57;;
33902;SDS011;20194;50.950;5.346;2023-04-06T09:32:55;21.15;;;8.88;;
33902;SDS011;20194;50.950;5.346;2023-04-06T09:35:21;17.20;;;8.15;;
33902;SDS011;20194;50.950;5.346;2023-04-06T09:37:48;18.15;;;8.02;;
33902;SDS011;20194;50.950;5.346;2023-04-06T09:40:15;16.45;;;8.40;;
33902;SDS011;20194;50.950;5.346;2023-04-06T09:42:45;15.27;;;8.10;;
33902;SDS011;20194;50.950;5.346;2023-04-06T09:45:12;15.88;;;7.40;;
33902;SDS011;20194;50.950;5.346;2023-04-06T09:47:39;15.13;;;7.00;;
33902;SDS011;20194;50.950;5.346;2023-04-06T09:50:08;16.10;;;7.75;;
33902;SDS011;20194;50.950;5.346;2023-04-06T09:55:11;17.90;;;8.85;;
33902;SDS011;20194;50.950;5.346;2023-04-06T09:58:00;16.52;;;8.40;;
33902;SDS011;20194;50.950;5.346;2023-04-06T10:00:40;22.02;;;8.93;;
33902;SDS011;20194;50.950;5.346;2023-04-06T10:06:08;25.67;;;8.98;;
33902;SDS011;20194;50.950;5.346;2023-04-06T10:08:38;15.88;;;7.03;;
33902;SDS011;20194;50.950;5.346;2023-04-06T10:11:06;22.17;;;9.30;;
33902;SDS011;20194;50.950;5.346;2023-04-06T10:13:34;20.45;;;8.52;;
33902;SDS011;20194;50.950;5.346;2023-04-06T10:16:00;14.85;;;7.45;;
33902;SDS011;20194;50.950;5.346;2023-04-06T10:18:29;17.67;;;8.75;;
33902;SDS011;20194;50.950;5.346;2023-04-06T10:20:56;36.55;;;9.98;;
33902;SDS011;20194;50.950;5.346;2023-04-06T10:23:36;17.85;;;8.75;;
33902;SDS011;20194;50.950;5.346;2023-04-06T10:26:12;15.70;;;8.50;;
33902;SDS011;20194;50.950;5.346;2023-04-06T10:28:41;16.10;;;8.40;;
33902;SDS011;20194;50.950;5.346;2023-04-06T10:31:09;20.02;;;10.35;;
33902;SDS011;20194;50.950;5.346;2023-04-06T10:33:35;20.13;;;9.57;;
33902;SDS011;20194;50.950;5.346;2023-04-06T10:38:37;17.67;;;9.60;;
33902;SDS011;20194;50.950;5.346;2023-04-06T10:41:04;17.85;;;9.55;;
33902;SDS011;20194;50.950;5.346;2023-04-06T10:43:34;18.08;;;9.23;;
33902;SDS011;20194;50.950;5.346;2023-04-06T10:46:01;17.33;;;9.77;;
33902;SDS011;20194;50.950;5.346;2023-04-06T10:51:09;25.08;;;9.30;;
33902;SDS011;20194;50.950;5.346;2023-04-06T10:53:36;16.52;;;9.32;;
33902;SDS011;20194;50.950;5.346;2023-04-06T10:56:02;17.90;;;8.38;;
33902;SDS011;20194;50.950;5.346;2023-04-06T10:58:29;18.63;;;7.95;;
33902;SDS011;20194;50.950;5.346;2023-04-06T11:00:55;17.35;;;8.30;;
33902;SDS011;20194;50.950;5.346;2023-04-06T11:03:21;14.88;;;8.45;;
33902;SDS011;20194;50.950;5.346;2023-04-06T11:05:49;12.00;;;6.05;;
33902;SDS011;20194;50.950;5.346;2023-04-06T11:08:24;16.90;;;8.50;;
33902;SDS011;20194;50.950;5.346;2023-04-06T11:11:06;17.23;;;8.07;;
33902;SDS011;20194;50.950;5.346;2023-04-06T11:16:30;17.00;;;7.70;;
33902;SDS011;20194;50.950;5.346;2023-04-06T11:19:00;14.55;;;7.05;;
33902;SDS011;20194;50.950;5.346;2023-04-06T11:21:35;14.70;;;7.13;;
33902;SDS011;20194;50.950;5.346;2023-04-06T11:26:30;16.65;;;7.18;;
33902;SDS011;20194;50.950;5.346;2023-04-06T11:28:56;16.05;;;7.45;;
33902;SDS011;20194;50.950;5.346;2023-04-06T11:31:25;15.50;;;7.40;;
33902;SDS011;20194;50.950;5.346;2023-04-06T11:33:57;15.52;;;7.68;;
33902;SDS011;20194;50.950;5.346;2023-04-06T11:36:23;16.23;;;6.32;;
33902;SDS011;20194;50.950;5.346;2023-04-06T11:38:56;16.70;;;7.80;;
33902;SDS011;20194;50.950;5.346;2023-04-06T11:41:23;16.02;;;8.05;;
33902;SDS011;20194;50.950;5.346;2023-04-06T11:43:50;14.23;;;7.40;;
33902;SDS011;20194;50.950;5.346;2023-04-06T11:46:17;13.32;;;8.07;;
33902;SDS011;20194;50.950;5.346;2023-04-06T11:48:45;16.88;;;8.32;;
33902;SDS011;20194;50.950;5.346;2023-04-06T11:51:11;17.63;;;8.05;;
33902;SDS011;20194;50.950;5.346;2023-04-06T11:53:46;17.38;;;8.30;;
33902;SDS011;20194;50.950;5.346;2023-04-06T11:56:22;15.52;;;7.22;;
33902;SDS011;20194;50.950;5.346;2023-04-06T11:58:54;14.38;;;6.13;;
33902;SDS011;20194;50.950;5.346;2023-04-06T12:01:24;16.00;;;8.15;;
33902;SDS011;20194;50.950;5.346;2023-04-06T12:03:50;18.80;;;8.85;;
33902;SDS011;20194;50.950;5.346;2023-04-06T12:06:16;23.15;;;8.02;;
33902;SDS011;20194;50.950;5.346;2023-04-06T12:08:42;22.20;;;8.23;;
33902;SDS011;20194;50.950;5.346;2023-04-06T12:11:09;12.85;;;7.55;;
33902;SDS011;20194;50.950;5.346;2023-04-06T12:13:35;13.38;;;7.10;;
33902;SDS011;20194;50.950;5.346;2023-04-06T12:16:01;12.98;;;7.40;;
33902;SDS011;20194;50.950;5.346;2023-04-06T12:18:28;14.70;;;6.78;;
33902;SDS011;20194;50.950;5.346;2023-04-06T12:20:54;14.13;;;6.45;;
33902;SDS011;20194;50.950;5.346;2023-04-06T12:23:20;9.88;;;5.95;;
33902;SDS011;20194;50.950;5.346;2023-04-06T12:25:46;15.77;;;7.25;;
33902;SDS011;20194;50.950;5.346;2023-04-06T12:28:12;13.43;;;6.75;;
33902;SDS011;20194;50.950;5.346;2023-04-06T12:30:38;16.15;;;8.15;;
33902;SDS011;20194;50.950;5.346;2023-04-06T12:33:05;14.80;;;6.75;;
33902;SDS011;20194;50.950;5.346;2023-04-06T12:35:34;19.42;;;7.82;;
33902;SDS011;20194;50.950;5.346;2023-04-06T12:38:01;13.57;;;6.55;;
33902;SDS011;20194;50.950;5.346;2023-04-06T12:40:27;17.90;;;7.88;;
33902;SDS011;20194;50.950;5.346;2023-04-06T12:42:53;10.80;;;5.50;;
33902;SDS011;20194;50.950;5.346;2023-04-06T12:45:19;16.67;;;7.93;;
33902;SDS011;20194;50.950;5.346;2023-04-06T12:47:44;17.45;;;8.10;;
33902;SDS011;20194;50.950;5.346;2023-04-06T12:50:10;14.70;;;6.57;;
33902;SDS011;20194;50.950;5.346;2023-04-06T12:52:36;12.88;;;6.53;;
33902;SDS011;20194;50.950;5.346;2023-04-06T12:55:02;11.88;;;7.57;;
33902;SDS011;20194;50.950;5.346;2023-04-06T12:57:30;13.48;;;7.32;;
33902;SDS011;20194;50.950;5.346;2023-04-06T12:59:56;17.10;;;7.78;;
33902;SDS011;20194;50.950;5.346;2023-04-06T13:02:22;16.67;;;7.97;;
33902;SDS011;20194;50.950;5.346;2023-04-06T13:04:48;16.00;;;8.38;;
33902;SDS011;20194;50.950;5.346;2023-04-06T13:07:15;12.75;;;6.78;;
33902;SDS011;20194;50.950;5.346;2023-04-06T13:09:41;13.88;;;7.53;;
33902;SDS011;20194;50.950;5.346;2023-04-06T13:12:07;14.73;;;7.38;;
33902;SDS011;20194;50.950;5.346;2023-04-06T13:14:33;14.48;;;7.72;;
33902;SDS011;20194;50.950;5.346;2023-04-06T13:16:58;11.57;;;7.45;;
33902;SDS011;20194;50.950;5.346;2023-04-06T13:19:25;10.43;;;7.20;;
33902;SDS011;20194;50.950;5.346;2023-04-06T13:21:51;16.20;;;8.63;;
33902;SDS011;20194;50.950;5.346;2023-04-06T13:24:17;11.63;;;7.20;;
33902;SDS011;20194;50.950;5.346;2023-04-06T13:26:44;14.98;;;8.32;;
33902;SDS011;20194;50.950;5.346;2023-04-06T13:29:10;16.70;;;7.82;;
33902;SDS011;20194;50.950;5.346;2023-04-06T13:31:36;14.98;;;8.07;;
33902;SDS011;20194;50.950;5.346;2023-04-06T13:34:01;11.98;;;6.60;;
33902;SDS011;20194;50.950;5.346;2023-04-06T13:36:27;13.82;;;7.18;;
33902;SDS011;20194;50.950;5.346;2023-04-06T13:38:53;12.80;;;7.38;;
33902;SDS011;20194;50.950;5.346;2023-04-06T13:41:20;13.77;;;7.80;;
33902;SDS011;20194;50.950;5.346;2023-04-06T13:43:47;12.35;;;7.00;;
33902;SDS011;20194;50.950;5.346;2023-04-06T13:46:13;11.30;;;4.75;;
33902;SDS011;20194;50.950;5.346;2023-04-06T13:48:39;11.95;;;7.03;;
33902;SDS011;20194;50.950;5.346;2023-04-06T13:51:09;12.23;;;7.00;;
33902;SDS011;20194;50.950;5.346;2023-04-06T13:53:36;11.73;;;7.25;;
33902;SDS011;20194;50.950;5.346;2023-04-06T13:56:01;15.90;;;8.63;;
33902;SDS011;20194;50.950;5.346;2023-04-06T13:58:27;12.60;;;5.88;;
33902;SDS011;20194;50.950;5.346;2023-04-06T14:00:53;16.42;;;7.25;;
33902;SDS011;20194;50.950;5.346;2023-04-06T14:03:18;14.20;;;7.85;;
33902;SDS011;20194;50.950;5.346;2023-04-06T14:05:45;15.18;;;8.23;;
33902;SDS011;20194;50.950;5.346;2023-04-06T14:08:11;14.43;;;8.30;;
33902;SDS011;20194;50.950;5.346;2023-04-06T14:10:40;15.23;;;7.95;;
33902;SDS011;20194;50.950;5.346;2023-04-06T14:13:07;13.48;;;6.95;;
33902;SDS011;20194;50.950;5.346;2023-04-06T14:15:33;13.77;;;5.70;;
33902;SDS011;20194;50.950;5.346;2023-04-06T14:17:59;13.32;;;7.57;;
33902;SDS011;20194;50.950;5.346;2023-04-06T14:20:25;14.82;;;6.78;;
33902;SDS011;20194;50.950;5.346;2023-04-06T14:22:51;11.38;;;7.75;;
33902;SDS011;20194;50.950;5.346;2023-04-06T14:25:17;10.63;;;6.05;;
33902;SDS011;20194;50.950;5.346;2023-04-06T14:27:43;12.73;;;7.65;;
33902;SDS011;20194;50.950;5.346;2023-04-06T14:30:09;11.70;;;6.85;;
33902;SDS011;20194;50.950;5.346;2023-04-06T14:32:35;13.07;;;8.32;;
33902;SDS011;20194;50.950;5.346;2023-04-06T14:35:02;14.60;;;8.07;;
33902;SDS011;20194;50.950;5.346;2023-04-06T14:37:28;11.57;;;7.07;;
33902;SDS011;20194;50.950;5.346;2023-04-06T14:39:55;11.10;;;6.63;;